Nearby METAR Reports

 

KGSP - Greer/Spartansbg, South Carolina, USA
Distance from station: E 4mi, 6km
Updated: Wed, 23-Jan-2019 3:53am EST
Overcast
Overcast
 Wind from NNE
Wind: NNE 8 mph , 13 km/h
Temperature: 36°F , 2°C
Wind Chill: 30°F , -1°C
Dew Point: 18°F , -8°C
Humidity: 48%
Barometer: 30.41 inHg , 1029.8 hPa
Clouds: Overcast
Visibility: 10 miles , 16 km
Cloud details: Overcast 1800 ft
2019/01/23 08:53 KGSP 230853Z AUTO 03007KT 10SM OVC018 02/M08 A3041 RMK AO2 SLP301 60001 T00171078 58022
KGMU - Greenville, South Carolina, USA
Distance from station: SW 5mi, 8km
Updated: Wed, 23-Jan-2019 3:53am EST
Overcast
Overcast
 Wind from ENE
Wind: ENE 8 mph , 13 km/h
Temperature: 37°F , 3°C
Wind Chill: 31°F , -1°C
Dew Point: 18°F , -8°C
Humidity: 45%
Barometer: 30.40 inHg , 1029.5 hPa
Clouds: Overcast
Visibility: 10 miles , 16 km
Cloud details: Overcast 1600 ft
2019/01/23 08:53 KGMU 230853Z AUTO 06007KT 10SM OVC016 03/M08 A3040 RMK AO2 SLP301 T00331083 58023
 
KGYH - Greenville, South Carolina, USA
Distance from station: SSW 11mi, 18km
Updated: Wed, 23-Jan-2019 3:35am EST
Overcast
Overcast
 Wind from NNE
Wind: NNE 10 mph , 17 km/h
Temperature: 36°F , 2°C
Wind Chill: 29°F , -2°C
Dew Point: 18°F , -8°C
Humidity: 48%
Barometer: 30.40 inHg , 1029.5 hPa
Clouds: Overcast
Visibility: 10 miles , 16 km
Cloud details: Overcast 1500 ft
2019/01/23 08:35 KGYH 230835Z AUTO 03009KT 10SM OVC015 02/M08 A3040 RMK AO2
KSPA - Spartanburg, South Carolina, USA
Distance from station: E 20mi, 32km
Updated: Wed, 23-Jan-2019 3:55am EST
Overcast
Overcast
 Wind from NE
Wind: NE 7 mph , 11 km/h
Temperature: 34°F , 1°C
Wind Chill: 28°F , -2°C
Dew Point: 23°F , -5°C
Humidity: 65%
Barometer: 30.42 inHg , 1030.1 hPa
Clouds: Overcast
Visibility: 10 miles , 16 km
Cloud details: Overcast 1900 ft
2019/01/23 08:55 KSPA 230855Z AUTO 05006KT 10SM OVC019 01/M05 A3042 RMK AO2
 
KLQK - Pickens, South Carolina, USA
Distance from station: WSW 24mi, 39km
Updated: Wed, 23-Jan-2019 3:55am EST
Overcast
Overcast
 Wind from ENE
Wind: ENE 6 mph , 9 km/h
Temperature: 37°F , 3°C
Wind Chill: 32°F , 0°C
Dew Point: 14°F , -10°C
Humidity: 38%
Barometer: 30.38 inHg , 1028.8 hPa
Clouds: Overcast
Visibility: 10 miles , 16 km
Cloud details: Overcast 2000 ft
2019/01/23 08:55 KLQK 230855Z AUTO 07005KT 10SM OVC020 03/M10 A3038 RMK AO2 T00321096
KLUX - Laurens, South Carolina, USA
Distance from station: SE 33mi, 54km
Updated: Wed, 23-Jan-2019 4:15am EST
Overcast
Overcast
 Wind from ENE
Wind: ENE 8 mph , 13 km/h
Temperature: 36°F , 2°C
Wind Chill: 30°F , -1°C
Dew Point: 21°F , -6°C
Humidity: 56%
Barometer: 30.40 inHg , 1029.5 hPa
Clouds: Overcast
Visibility: 10 miles , 16 km
Cloud details: Overcast 1400 ft
2019/01/23 09:15 KLUX 230915Z AUTO 07007KT 10SM OVC014 02/M06 A3040 RMK AO2
 
KAND - Anderson, South Carolina, USA
Distance from station: SW 37mi, 59km
Updated: Wed, 23-Jan-2019 3:56am EST
Overcast
Overcast
 Wind from NE
Wind: NE 7 mph , 11 km/h
Temperature: 39°F , 4°C
Wind Chill: 34°F , 1°C
Dew Point: 19°F , -7°C
Humidity: 45%
Barometer: 30.39 inHg , 1029.1 hPa
Clouds: Overcast
Visibility: 10 miles , 16 km
Cloud details: Overcast 1900 ft
2019/01/23 08:56 KAND 230856Z AUTO 05006KT 10SM OVC019 04/M07 A3039 RMK AO2 SLP292 T00391072 56021
KCEU - Clemson, South Carolina, USA
Distance from station: WSW 37mi, 60km
Updated: Wed, 23-Jan-2019 3:54am EST
Overcast
Overcast
 Wind from NE
Wind: NE 9 mph , 15 km/h
Temperature: 37°F , 3°C
Wind Chill: 30°F , -1°C
Dew Point: 16°F , -9°C
Humidity: 41%
Barometer: 30.39 inHg , 1029.1 hPa
Clouds: Overcast
Visibility: 10 miles , 16 km
Cloud details: Overcast 1900 ft
2019/01/23 08:54 KCEU 230854Z AUTO 05008KT 10SM OVC019 03/M09 A3039 RMK AO2 SLP295 T00331089 58024
 
KAVL - Asheville, North Carolina, USA
Distance from station: NNW 40mi, 64km
Updated: Wed, 23-Jan-2019 3:54am EST
Overcast
Overcast
 Wind from calm
Wind: Calm
Temperature: 30°F , -1°C
Dew Point: 27°F , -3°C
Humidity: 86%
Barometer: 30.36 inHg , 1028.1 hPa
Clouds: Overcast
Visibility: 9 miles , 14 km
Cloud details: Overcast 1000 ft
2019/01/23 08:54 KAVL 230854Z AUTO 00000KT 9SM OVC010 M01/M03 A3036 RMK AO2 UPB08E44 SLP292 P0000 60000 T10061033 58021
KFQD - Rutherfordton, North Carolina, USA
Distance from station: NNE 41mi, 66km
Updated: Wed, 23-Jan-2019 4:00am EST
Overcast
Overcast
 Wind from calm
Wind: Calm
Temperature: 34°F , 1°C
Dew Point: 14°F , -10°C
Humidity: 44%
Barometer: 30.42 inHg , 1030.1 hPa
Clouds: Overcast
Visibility: 10 miles , 16 km
Cloud details: Overcast 2000 ft
2019/01/23 09:00 KFQD 230900Z AUTO 00000KT 10SM OVC020 01/M10 A3042 RMK AO2
 
KGRD - Greenwood, South Carolina, USA
Distance from station: S 45mi, 73km
Updated: Wed, 23-Jan-2019 4:07am EST
Overcast
Overcast
 Wind from NE
Wind: NE 8 mph , 13 km/h
Temperature: 37°F , 3°C
Wind Chill: 31°F , -1°C
Dew Point: 21°F , -6°C
Humidity: 52%
Barometer: 30.40 inHg , 1029.5 hPa
Clouds: Overcast
Visibility: 10 miles , 16 km
Cloud details: Partly cloudy 1500 ft
Mostly cloudy 4700 ft
Overcast 8000 ft
2019/01/23 09:07 KGRD 230907Z AUTO 04007KT 10SM SCT015 BKN047 OVC080 03/M06 A3040 RMK AO2 T00331061
KEHO - Shelby Muni, North Carolina, USA
Distance from station: ENE 46mi, 74km
Updated: Wed, 23-Jan-2019 4:05am EST
Overcast
Overcast
 Wind from NNE
Wind: NNE 6 mph , 9 km/h
Temperature: 32°F , 0°C
Wind Chill: 26°F , -3°C
Dew Point: 27°F , -3°C
Humidity: 80%
Barometer: 30.44 inHg , 1030.8 hPa
Clouds: Overcast
Visibility: 10 miles , 16 km
Cloud details: Overcast 1900 ft
2019/01/23 09:05 KEHO 230905Z AUTO 02005KT 10SM OVC019 00/M03 A3044 RMK AO2 T00001027